Accueil
METAR-TAF:

METAR-TAF

Aéroports :

Aéroport de Paris-Beauvais

Beauvais, France

latitude: 49-28N, longitude: 002-07E, altitude: 109 m

Observation

Le bulletin a été fait il y a 34 minutes, à 18:00 UTC
Vent calme
Température 3°C
Humidité 100%
Pression 1019 hPa
Visibilité: 0300 m
brouillard

METAR: LFOB 261800Z AUTO 00000KT 0600 0300 R30/0350N R12/4000U FG VV/// 03/03 Q1019 BECMG 0300 FG

Heure: 19:34 (18:34 UTC)

Prévision

Le bulletin a été fait il y a 1 heure et 34 minutes, à 17:00 UTC
Prévision valable du 26 à 18 UTC au 27 à 18 UTC
Vent 2 kt de direction variable
Visibilité: 0300 m
brouillard
Temporairement
du 27 à 02 UTC au 27 à 08 UTC
Visibilité: 2000 m
Nuages fragmentés à une hauteur de 4000 ft
brume
Evoluant progressivement
du 27 à 08 UTC au 27 à 11 UTC
Visibilité: 7000 m

TAF: LFOB 261700Z 2618/2718 VRB02KT 0300 FG VV/// TEMPO 2702/2708 2000 BR BKN040 BECMG 2708/2711 7000 NSW NSC

Observations et prévisions météorologiques de plus de 4000 aéroports (messages METAR et TAF).

Les stations disponibles sont représentées par des disques jaunes et rouges sur la carte.

Passer la souris dessus pour voir le nom de la station.

Cliquer dessus pour voir les observations et prévisions météorologiques.

Pour changer de carte: cliquez sur les boutons verts avec une croix noire pour zoomer, sur le bouton vert avec un tiret pour effectuer un zoom arrière, ou sur les flèches vertes pour les cartes adjacentes.


METAR-TAF: